KDMN

Deming Municipal Airport

Deming, New Mexico, USA
METAR KDMN 230153Z AUTO 27011KT 10SM CLR 28/M08 A2988 RMK AO2 WSHFT 0113 SLP046 T02781083
Observed Flight Rules
May-23 @ 01:53 UTC (an hour ago) Visual Flight Rules
Wind Visibility Clouds
270° at 11 knots 10 miles
  • Clear skies
Temperatures Readings
Current 28°C / 82°F
Dewpoint -8°C / 18°F
Humidity 9%
Altimeter 29.88" Hg
Pressure 1004.6 hPa
Elevation 1311
METAR KDMN 230153Z AUTO 27011KT 10SM CLR 28/M08 A2988 RMK AO2 WSHFT 0113 SLP046 T02781083
Observed Flight Rules
May-23 @ 01:53 UTC
(an hour ago)
VFR
Wind Visibility
270° at 11 knots 10 miles
Clouds
  • Clear skies
Temperature Dewpoint
28°C / 82°F -8°C / 18°F
Humidity Altimeter Pressure
9% 29.88" Hg 1004.6 hPa